Time;durP1;ratioP1;P1;durP2;ratioP2;P2;SDS_P1;SDS_P2;PMS_P1;PMS_P2;Temp;Humidity;BMP_temperature;BMP_pressure;BME280_temperature;BME280_humidity;BME280_pressure;Samples;Min_cycle;Max_cycle;Signal;HPM_P1;HPM_P2
2022/09/17 00:00:51;;;;;;;8.60;2.03;;;;;;;11.43;100.00;101272.03;5261869;28;20036;-72
2022/09/17 00:03:23;;;;;;;9.93;3.00;;;;;;;11.51;100.00;101279.28;5262792;28;20025;-72
2022/09/17 00:06:09;;;;;;;7.30;1.93;;;;;;;11.58;100.00;101288.31;5277585;28;20073;-72
2022/09/17 00:08:40;;;;;;;10.25;2.25;;;;;;;11.52;100.00;101299.34;5275581;28;20286;-72
2022/09/17 00:11:25;;;;;;;10.30;2.33;;;;;;;11.68;100.00;101302.38;5273703;28;20082;-72
2022/09/17 00:13:59;;;;;;;9.48;2.03;;;;;;;11.57;100.00;101299.78;5274638;28;20032;-72
2022/09/17 00:16:36;;;;;;;11.75;2.63;;;;;;;11.58;100.00;101298.81;5274576;28;20083;-72
2022/09/17 00:19:13;;;;;;;13.57;2.40;;;;;;;11.67;100.00;101306.78;5274134;28;20523;-72
2022/09/17 00:21:44;;;;;;;7.43;1.92;;;;;;;11.58;100.00;101296.19;5274246;28;20032;-72
2022/09/17 00:24:16;;;;;;;8.65;2.53;;;;;;;11.56;100.00;101298.97;5264381;28;20036;-72
2022/09/17 00:26:48;;;;;;;10.10;1.90;;;;;;;11.58;100.00;101294.41;5275489;28;20035;-72
2022/09/17 00:29:20;;;;;;;9.82;2.08;;;;;;;11.57;100.00;101287.50;5275087;28;20305;-72
2022/09/17 00:31:51;;;;;;;9.18;1.63;;;;;;;11.61;100.00;101293.31;5272841;28;20020;-72
2022/09/17 00:34:22;;;;;;;8.98;1.90;;;;;;;11.57;100.00;101295.38;5273822;28;20028;-72
2022/09/17 00:36:54;;;;;;;9.65;2.00;;;;;;;11.60;100.00;101297.75;5275979;28;20493;-72
2022/09/17 00:39:25;;;;;;;9.93;2.33;;;;;;;11.64;100.00;101306.19;5271374;28;20094;-72
2022/09/17 00:41:56;;;;;;;10.18;1.98;;;;;;;11.63;100.00;101307.13;5273052;28;20044;-72
2022/09/17 00:44:50;;;;;;;9.50;1.88;;;;;;;11.97;100.00;101305.25;5275448;28;20221;-72
2022/09/17 00:47:43;;;;;;;;;;;;;;;12.23;100.00;101310.91;5275598;28;20430;-73
2022/09/17 00:50:20;;;;;;;10.63;2.60;;;;;;;11.78;100.00;101303.28;5273649;28;19913;-72
2022/09/17 00:52:59;;;;;;;8.48;1.90;;;;;;;11.74;100.00;101296.59;5274533;28;20075;-72
2022/09/17 00:55:35;;;;;;;9.38;1.88;;;;;;;11.70;100.00;101303.06;5277700;28;20155;-72
2022/09/17 00:58:09;;;;;;;8.25;2.17;;;;;;;11.68;100.00;101304.97;5278657;28;20460;-72
2022/09/17 01:00:42;;;;;;;9.77;2.05;;;;;;;11.66;100.00;101314.75;5278720;28;20037;-72
2022/09/17 01:03:13;;;;;;;13.53;2.30;;;;;;;11.62;100.00;101311.56;5279892;28;20520;-72
2022/09/17 01:05:52;;;;;;;8.57;1.95;;;;;;;11.62;100.00;101316.81;5276958;28;20294;-72
2022/09/17 01:08:52;;;;;;;8.55;2.15;;;;;;;11.75;100.00;101306.16;5278269;28;20125;-72
2022/09/17 01:11:32;;;;;;;8.07;1.92;;;;;;;11.77;100.00;101319.97;5278462;28;20150;-72
2022/09/17 01:14:14;;;;;;;8.98;2.15;;;;;;;11.64;100.00;101317.53;5278851;28;20028;-72
2022/09/17 01:17:11;;;;;;;12.60;2.20;;;;;;;11.80;100.00;101313.63;5277935;28;20032;-72
2022/09/17 01:20:11;;;;;;;10.57;2.30;;;;;;;11.86;100.00;101308.75;5278301;28;20074;-72
2022/09/17 01:22:42;;;;;;;11.63;2.13;;;;;;;11.72;100.00;101310.81;5276406;28;20034;-72
2022/09/17 01:25:23;;;;;;;9.00;1.87;;;;;;;11.79;100.00;101320.69;5277426;28;20028;-72
2022/09/17 01:28:28;;;;;;;9.90;2.08;;;;;;;11.95;100.00;101324.69;5278347;28;20107;-72
2022/09/17 01:31:11;;;;;;;9.95;1.75;;;;;;;11.78;100.00;101324.28;5278331;28;20025;-72
2022/09/17 01:33:43;;;;;;;;;;;;;;;12.27;100.00;101335.97;5278950;28;20032;-72
2022/09/17 01:36:26;;;;;;;7.25;1.85;;;;;;;11.99;100.00;101336.63;5278262;28;20327;-71
2022/09/17 01:39:06;;;;;;;10.75;1.77;;;;;;;11.82;100.00;101335.34;5276496;28;20507;-72
2022/09/17 01:41:49;;;;;;;9.68;2.03;;;;;;;11.95;100.00;101328.16;5271627;28;20036;-72
2022/09/17 01:44:40;;;;;;;;;;;;;;;12.35;100.00;101330.91;5277314;28;20032;-72
2022/09/17 01:47:23;;;;;;;9.88;2.38;;;;;;;11.97;100.00;101335.91;5278203;28;19944;-72
2022/09/17 01:50:00;;;;;;;6.72;1.45;;;;;;;11.88;100.00;101340.94;5277171;28;20110;-72
2022/09/17 01:52:34;;;;;;;8.88;2.40;;;;;;;11.80;100.00;101338.09;5276933;28;20028;-72
2022/09/17 01:55:13;;;;;;;9.30;2.10;;;;;;;11.85;100.00;101335.94;5276336;28;20051;-71
2022/09/17 01:57:57;;;;;;;9.07;2.20;;;;;;;11.87;100.00;101343.72;5276901;28;20490;-71
2022/09/17 02:00:29;;;;;;;9.35;2.38;;;;;;;11.66;100.00;101328.72;5274071;28;20029;-72
2022/09/17 02:03:22;;;;;;;9.45;1.70;;;;;;;11.88;100.00;101338.31;5276837;28;20089;-72
2022/09/17 02:06:00;;;;;;;8.32;2.17;;;;;;;11.77;100.00;101338.34;5287528;28;20044;-72
2022/09/17 02:08:55;;;;;;;9.25;1.80;;;;;;;11.89;100.00;101340.00;5278154;28;20072;-72
2022/09/17 02:11:27;;;;;;;13.60;1.98;;;;;;;11.69;100.00;101332.88;5276134;28;20481;-72
2022/09/17 02:14:02;;;;;;;8.40;1.75;;;;;;;11.67;100.00;101335.66;5278506;28;20028;-72
2022/09/17 02:16:36;;;;;;;8.30;2.15;;;;;;;11.67;100.00;101335.66;5278393;28;20074;-72
2022/09/17 02:19:27;;;;;;;6.97;1.65;;;;;;;11.86;100.00;101318.44;5277999;28;20025;-72
2022/09/17 02:22:13;;;;;;;9.82;2.15;;;;;;;11.80;100.00;101327.59;5276347;28;20086;-72
2022/09/17 02:25:43;;;;;;;10.55;1.75;;;;;;;11.93;100.00;101328.28;5277250;28;20024;-72
2022/09/17 02:28:24;;;;;;;9.15;1.90;;;;;;;11.73;100.00;101334.31;5229544;28;20065;-71
2022/09/17 02:30:56;;;;;;;11.48;2.45;;;;;;;11.65;100.00;101348.06;5229953;28;20033;-72
2022/09/17 02:33:29;;;;;;;7.32;1.90;;;;;;;11.72;100.00;101347.56;5257461;28;20032;-72
2022/09/17 02:36:01;;;;;;;10.73;2.05;;;;;;;11.66;100.00;101341.00;5278527;28;20032;-71
2022/09/17 02:38:33;;;;;;;11.43;2.13;;;;;;;11.61;100.00;101348.44;5277503;28;20546;-72
2022/09/17 02:41:24;;;;;;;7.70;1.75;;;;;;;11.83;100.00;101353.63;5275497;28;20498;-72
2022/09/17 02:44:02;;;;;;;8.45;1.92;;;;;;;11.72;100.00;101353.66;5278119;28;20090;-72
2022/09/17 02:46:52;;;;;;;8.73;2.00;;;;;;;11.61;100.00;101351.06;5276726;28;20405;-72
2022/09/17 02:49:50;;;;;;;8.80;2.15;;;;;;;11.66;100.00;101357.59;5276210;28;20025;-72
2022/09/17 02:52:24;;;;;;;11.07;2.08;;;;;;;11.53;100.00;101353.47;5276100;28;20386;-71
2022/09/17 02:55:01;;;;;;;7.22;1.92;;;;;;;11.61;100.00;101362.38;5277583;28;20111;-72
2022/09/17 02:57:39;;;;;;;7.88;1.90;;;;;;;11.57;100.00;101353.09;5277054;28;20024;-72
2022/09/17 03:00:17;;;;;;;6.15;1.73;;;;;;;11.56;100.00;101364.56;5275080;28;20341;-72
2022/09/17 03:02:59;;;;;;;9.85;1.92;;;;;;;11.54;100.00;101360.38;5273760;28;20028;-72
2022/09/17 03:05:33;;;;;;;8.83;1.90;;;;;;;11.43;100.00;101359.44;5276806;28;20081;-72
2022/09/17 03:08:06;;;;;;;;;;;;;;;11.98;100.00;101354.16;5269640;28;20037;-72
2022/09/17 03:10:39;;;;;;;;;;;;;;;12.00;100.00;101356.66;5255017;28;19916;-72
2022/09/17 03:13:10;;;;;;;11.18;1.90;;;;;;;11.39;100.00;101354.56;5260304;28;19913;-72
2022/09/17 03:15:41;;;;;;;9.07;1.88;;;;;;;11.38;100.00;101359.00;5266504;28;20389;-72
2022/09/17 03:18:13;;;;;;;8.13;1.90;;;;;;;11.36;100.00;101345.16;5267695;28;20029;-72
2022/09/17 03:20:45;;;;;;;9.63;1.50;;;;;;;11.38;100.00;101360.78;5263038;28;20029;-72
2022/09/17 03:23:16;;;;;;;9.68;1.70;;;;;;;11.33;100.00;101352.47;5261824;28;20482;-72
2022/09/17 03:25:51;;;;;;;7.13;1.60;;;;;;;11.34;100.00;101347.06;5259979;28;20079;-72
2022/09/17 03:28:24;;;;;;;7.45;2.10;;;;;;;11.31;100.00;101357.81;5260759;28;20017;-72
2022/09/17 03:30:55;;;;;;;9.63;2.10;;;;;;;11.32;100.00;101348.97;5238198;28;20021;-72
2022/09/17 03:33:26;;;;;;;6.68;1.65;;;;;;;11.30;100.00;101343.03;5264761;28;20498;-72
2022/09/17 03:35:57;;;;;;;12.52;1.90;;;;;;;11.37;100.00;101354.72;5262027;28;20155;-72
2022/09/17 03:38:29;;;;;;;7.25;1.60;;;;;;;11.31;100.00;101355.19;5258884;28;20055;-71
2022/09/17 03:41:03;;;;;;;14.50;2.28;;;;;;;11.32;100.00;101348.97;5257296;28;20024;-72
2022/09/17 03:43:35;;;;;;;7.90;1.85;;;;;;;11.20;100.00;101340.28;5264479;28;20033;-72
2022/09/17 03:46:06;;;;;;;9.18;2.42;;;;;;;11.25;100.00;101345.19;5267210;28;20036;-72
2022/09/17 03:48:38;;;;;;;7.78;2.13;;;;;;;11.22;100.00;101348.06;5260435;28;20359;-72
2022/09/17 03:51:09;;;;;;;7.90;1.60;;;;;;;11.17;100.00;101344.94;5262222;28;20166;-72
2022/09/17 03:53:41;;;;;;;13.63;2.63;;;;;;;11.17;100.00;101355.44;5262775;28;20114;-72
2022/09/17 03:56:12;;;;;;;8.43;1.83;;;;;;;11.14;100.00;101346.03;5259584;28;20047;-72
2022/09/17 03:58:43;;;;;;;9.63;1.67;;;;;;;11.08;100.00;101349.13;5264076;28;20036;-72
2022/09/17 04:01:15;;;;;;;7.03;1.52;;;;;;;11.02;100.00;101348.78;5257353;28;20025;-72
2022/09/17 04:03:46;;;;;;;6.65;1.48;;;;;;;11.09;100.00;101357.84;5260805;28;20474;-71
2022/09/17 04:06:18;;;;;;;8.63;1.63;;;;;;;11.02;100.00;101351.41;5256337;28;20104;-72
2022/09/17 04:08:49;;;;;;;5.85;1.30;;;;;;;11.01;100.00;101358.44;5268594;28;20036;-72
2022/09/17 04:11:20;;;;;;;10.20;2.05;;;;;;;11.02;100.00;101356.66;5275340;28;20020;-72
2022/09/17 04:13:51;;;;;;;11.40;2.22;;;;;;;11.00;100.00;101363.81;5276309;28;20031;-72
2022/09/17 04:16:23;;;;;;;6.10;1.35;;;;;;;10.92;100.00;101365.25;5275607;28;20478;-72
2022/09/17 04:18:54;;;;;;;8.32;1.80;;;;;;;10.91;100.00;101376.69;5275660;28;20081;-72
2022/09/17 04:21:25;;;;;;;13.05;2.28;;;;;;;10.92;100.00;101370.50;5274555;28;20027;-72
2022/09/17 04:23:57;;;;;;;9.90;2.00;;;;;;;10.92;100.00;101372.28;5274859;28;20035;-72
2022/09/17 04:26:28;;;;;;;6.30;1.33;;;;;;;10.91;100.00;101374.06;5275647;28;20060;-71
2022/09/17 04:29:00;;;;;;;9.10;1.58;;;;;;;10.88;100.00;101369.06;5272171;28;20012;-72
2022/09/17 04:31:31;;;;;;;9.07;1.75;;;;;;;10.90;100.00;101372.38;5279100;28;20028;-72
2022/09/17 04:34:02;;;;;;;9.23;1.90;;;;;;;10.89;100.00;101377.75;5279203;28;20393;-72
2022/09/17 04:36:33;;;;;;;7.43;1.48;;;;;;;10.92;100.00;101377.53;5280151;28;20032;-72
2022/09/17 04:39:05;;;;;;;5.03;1.40;;;;;;;10.94;100.00;101375.59;5279662;28;20043;-72
2022/09/17 04:41:36;;;;;;;7.65;1.52;;;;;;;10.99;100.00;101383.97;5276757;28;20028;-72
2022/09/17 04:44:07;;;;;;;8.18;1.88;;;;;;;10.98;100.00;101389.31;5279442;28;20028;-71
2022/09/17 04:46:39;;;;;;;6.03;1.48;;;;;;;11.01;100.00;101403.00;5280198;28;20021;-71
2022/09/17 04:49:10;;;;;;;8.90;1.88;;;;;;;11.04;100.00;101397.53;5278637;28;20042;-72
2022/09/17 04:51:41;;;;;;;6.72;1.58;;;;;;;11.03;100.00;101388.00;5278911;28;20028;-72
2022/09/17 04:54:13;;;;;;;10.35;2.45;;;;;;;11.06;100.00;101372.03;5280338;28;20043;-72
2022/09/17 04:56:44;;;;;;;8.23;2.03;;;;;;;11.02;100.00;101369.75;5279687;28;20039;-71
2022/09/17 04:59:16;;;;;;;9.48;1.90;;;;;;;11.02;100.00;101373.22;5278801;28;20024;-72
2022/09/17 05:01:48;;;;;;;8.48;1.85;;;;;;;11.03;100.00;101368.81;5278539;28;20393;-71
2022/09/17 05:04:19;;;;;;;14.00;2.72;;;;;;;11.02;100.00;101373.22;5278203;28;20021;-71
2022/09/17 05:06:50;;;;;;;7.82;1.88;;;;;;;11.02;100.00;101369.75;5278787;28;20026;-72
2022/09/17 05:09:22;;;;;;;8.75;2.10;;;;;;;11.04;100.00;101388.84;5264304;28;20561;-72
2022/09/17 05:11:53;;;;;;;8.52;2.15;;;;;;;11.01;100.00;101382.03;5266433;28;20429;-71
2022/09/17 05:14:24;;;;;;;9.02;1.83;;;;;;;11.01;100.00;101389.06;5268336;28;20103;-72
2022/09/17 05:16:56;;;;;;;8.75;1.52;;;;;;;10.96;100.00;101379.78;5270698;28;20077;-72
2022/09/17 05:19:27;;;;;;;7.18;2.22;;;;;;;10.93;100.00;101393.13;5262755;28;20060;-72
2022/09/17 05:21:58;;;;;;;9.27;1.52;;;;;;;10.91;100.00;101392.41;5261431;28;20085;-72
2022/09/17 05:24:29;;;;;;;9.98;1.63;;;;;;;10.89;100.00;101398.72;5262619;28;20025;-72
2022/09/17 05:27:01;;;;;;;8.52;2.20;;;;;;;10.85;100.00;101398.13;5266307;28;20435;-72
2022/09/17 05:29:32;;;;;;;11.00;1.90;;;;;;;10.86;100.00;101405.03;5258655;28;20493;-72
2022/09/17 05:32:04;;;;;;;7.03;1.63;;;;;;;10.81;100.00;101406.34;5256784;28;20617;-72
2022/09/17 05:34:35;;;;;;;6.82;2.25;;;;;;;10.81;100.00;101408.97;5263827;28;20028;-72
2022/09/17 05:37:10;;;;;;;10.48;1.63;;;;;;;10.84;100.00;101400.88;5260566;28;20595;-72
2022/09/17 05:39:41;;;;;;;6.75;1.33;;;;;;;10.78;100.00;101409.19;5260680;28;20028;-72
2022/09/17 05:42:12;;;;;;;6.50;1.80;;;;;;;10.81;100.00;101398.50;5254789;28;20035;-72
2022/09/17 05:44:43;;;;;;;10.25;2.00;;;;;;;10.85;100.00;101407.78;5255188;28;20028;-72
2022/09/17 05:47:14;;;;;;;8.65;1.73;;;;;;;10.85;100.00;101410.41;5259305;28;20021;-72
2022/09/17 05:49:46;;;;;;;8.77;1.70;;;;;;;10.89;100.00;101407.41;5255913;28;20057;-72
2022/09/17 05:52:18;;;;;;;8.30;1.80;;;;;;;10.87;100.00;101409.34;5257920;28;20083;-73
2022/09/17 05:54:49;;;;;;;10.60;1.65;;;;;;;10.91;100.00;101415.16;5259255;28;20044;-73
2022/09/17 05:57:20;;;;;;;8.98;1.83;;;;;;;10.89;100.00;101406.59;5256496;28;20022;-72
2022/09/17 05:59:52;;;;;;;7.65;2.00;;;;;;;10.93;100.00;101424.59;5261025;28;20036;-72
2022/09/17 06:02:23;;;;;;;11.05;2.08;;;;;;;11.02;100.00;101436.13;5254117;28;20025;-72
2022/09/17 06:04:54;;;;;;;6.70;1.70;;;;;;;11.04;100.00;101439.50;5259272;28;20021;-72
2022/09/17 06:07:26;;;;;;;10.00;1.80;;;;;;;11.04;100.00;101455.22;5265727;28;20021;-73
2022/09/17 06:09:57;;;;;;;12.98;2.97;;;;;;;11.06;100.00;101447.22;5277357;28;20110;-71
2022/09/17 06:12:29;;;;;;;14.90;2.20;;;;;;;11.10;100.00;101449.50;5278297;28;20046;-72
2022/09/17 06:15:01;;;;;;;9.27;2.00;;;;;;;11.10;100.00;101453.91;5277312;28;20043;-72
2022/09/17 06:17:34;;;;;;;6.10;1.50;;;;;;;11.07;100.00;101447.13;5277282;28;20028;-72
2022/09/17 06:20:05;;;;;;;3.95;1.38;;;;;;;11.08;100.00;101454.03;5276238;28;20052;-72
2022/09/17 06:22:37;;;;;;;6.57;1.27;;;;;;;11.06;100.00;101450.72;5275846;28;20157;-72
2022/09/17 06:25:08;;;;;;;6.82;2.10;;;;;;;11.00;100.00;101445.94;5278250;28;20123;-72
2022/09/17 06:27:39;;;;;;;9.60;1.65;;;;;;;11.06;100.00;101449.84;5277498;28;20027;-72
2022/09/17 06:30:11;;;;;;;8.27;1.70;;;;;;;11.02;100.00;101443.16;5276414;28;20028;-72
2022/09/17 06:32:42;;;;;;;7.05;1.25;;;;;;;11.02;100.00;101445.78;5277729;28;20029;-72
2022/09/17 06:35:14;;;;;;;9.90;1.90;;;;;;;11.00;100.00;101445.09;5278153;28;20036;-72
2022/09/17 06:37:45;;;;;;;8.50;1.88;;;;;;;11.01;100.00;101437.09;5267329;28;20028;-72
2022/09/17 06:40:16;;;;;;;8.25;1.70;;;;;;;11.01;100.00;101441.50;5266116;28;20516;-72
2022/09/17 06:42:47;;;;;;;10.88;1.80;;;;;;;11.05;100.00;101448.19;5274956;28;20064;-72
2022/09/17 06:45:19;;;;;;;7.45;1.90;;;;;;;11.06;100.00;101444.59;5276068;28;20093;-72
2022/09/17 06:47:50;;;;;;;8.82;1.70;;;;;;;11.06;100.00;101441.97;5261679;28;20020;-72
2022/09/17 06:50:22;;;;;;;6.90;1.55;;;;;;;11.11;100.00;101447.72;5274776;28;20489;-72
2022/09/17 06:52:53;;;;;;;12.27;1.67;;;;;;;11.12;100.00;101438.91;5273577;28;20032;-72
2022/09/17 06:55:25;;;;;;;7.30;1.63;;;;;;;11.14;100.00;101437.84;5275961;28;20040;-72
2022/09/17 06:57:58;;;;;;;4.75;1.30;;;;;;;11.19;100.00;101433.06;5276349;28;20043;-72
2022/09/17 07:00:29;;;;;;;8.50;2.03;;;;;;;11.22;100.00;101434.63;5275821;28;20032;-72
2022/09/17 07:03:01;;;;;;;8.02;1.50;;;;;;;11.25;100.00;101431.75;5275053;28;20024;-72
2022/09/17 07:05:32;;;;;;;5.25;1.35;;;;;;;11.41;100.00;101431.38;5276853;28;20441;-72
2022/09/17 07:08:03;;;;;;;10.25;1.85;;;;;;;11.54;100.00;101442.56;5277463;28;20443;-72
2022/09/17 07:10:35;;;;;;;8.60;2.20;;;;;;;11.67;100.00;101442.44;5263253;28;20487;-72
2022/09/17 07:13:06;;;;;;;11.57;1.70;;;;;;;11.71;100.00;101441.22;5276803;28;20044;-72
2022/09/17 07:15:38;;;;;;;7.20;1.80;;;;;;;11.78;100.00;101442.41;5276453;28;20024;-72
2022/09/17 07:18:10;;;;;;;9.93;2.10;;;;;;;11.86;100.00;101447.06;5276049;28;20056;-72
2022/09/17 07:20:42;;;;;;;9.30;2.28;;;;;;;12.05;100.00;101443.78;5277388;28;20032;-72
2022/09/17 07:23:13;;;;;;;10.15;1.85;;;;;;;12.13;100.00;101442.19;5275910;28;20020;-72
2022/09/17 07:25:50;;;;;;;6.75;1.48;;;;;;;12.30;100.00;101461.81;5276669;28;20024;-72
2022/09/17 07:28:22;;;;;;;10.65;2.13;;;;;;;12.30;100.00;101461.81;5276636;28;20020;-72
2022/09/17 07:30:54;;;;;;;6.65;1.73;;;;;;;12.36;100.00;101460.50;5274563;28;20973;-72
2022/09/17 07:33:26;;;;;;;8.05;1.60;;;;;;;12.37;100.00;101436.72;5275239;28;20127;-72
2022/09/17 07:36:00;;;;;;;7.70;1.70;;;;;;;12.53;100.00;101444.16;5277257;28;20028;-72
2022/09/17 07:38:32;;;;;;;6.50;1.70;;;;;;;12.64;100.00;101446.72;5272010;28;20533;-72
2022/09/17 07:41:08;;;;;;;10.07;2.38;;;;;;;12.83;100.00;101446.00;5275543;28;20060;-72
2022/09/17 07:43:40;;;;;;;5.45;1.63;;;;;;;12.89;100.00;101442.03;5279121;28;20374;-72
2022/09/17 07:46:17;;;;;;;5.40;1.10;;;;;;;12.96;100.00;101448.44;5279899;28;20051;-72
2022/09/17 07:48:49;;;;;;;6.28;1.13;;;;;;;12.87;100.00;101443.94;5264670;28;20063;-72
2022/09/17 07:51:27;;;;;;;4.90;1.42;;;;;;;13.06;100.00;101451.91;5276090;28;20032;-72
2022/09/17 07:53:58;;;;;;;5.18;1.20;;;;;;;12.99;100.00;101452.56;5273997;28;20075;-72
2022/09/17 07:56:30;;;;;;;3.70;0.90;;;;;;;13.10;100.00;101441.97;5277099;28;20107;-72
2022/09/17 07:59:02;;;;;;;6.15;1.15;;;;;;;13.00;100.00;101449.00;5264083;28;20474;-71
2022/09/17 08:01:35;;;;;;;7.07;1.38;;;;;;;13.05;100.00;101449.44;5274847;28;20038;-72
2022/09/17 08:04:07;;;;;;;5.85;1.38;;;;;;;13.15;100.00;101451.16;5272758;28;20047;-72
2022/09/17 08:06:39;;;;;;;8.93;1.50;;;;;;;13.18;100.00;101438.69;5276401;28;20024;-72
2022/09/17 08:09:11;;;;;;;5.18;1.45;;;;;;;13.37;100.00;101444.91;5276703;28;20040;-72
2022/09/17 08:11:43;;;;;;;9.95;1.88;;;;;;;13.54;100.00;101442.59;5274660;28;20035;-72
2022/09/17 08:14:15;;;;;;;4.95;0.95;;;;;;;13.61;100.00;101446.34;5275830;28;20032;-72
2022/09/17 08:16:46;;;;;;;6.97;2.05;;;;;;;13.69;100.00;101451.75;5274187;28;20035;-72
2022/09/17 08:19:18;;;;;;;5.22;1.48;;;;;;;13.68;100.00;101447.47;5273483;28;21260;-71
2022/09/17 08:21:50;;;;;;;5.60;1.17;;;;;;;13.68;100.00;101458.00;5279444;28;20028;-72
2022/09/17 08:24:21;;;;;;;6.07;1.40;;;;;;;13.70;100.00;101453.41;5273141;28;20081;-72
2022/09/17 08:26:53;;;;;;;5.25;1.23;;;;;;;13.77;100.00;101451.09;5275825;28;20101;-72
2022/09/17 08:29:24;;;;;;;7.45;1.52;;;;;;;13.93;100.00;101455.81;5274839;28;20098;-72
2022/09/17 08:31:55;;;;;;;3.28;1.15;;;;;;;13.95;100.00;101451.25;5274625;28;20402;-72
2022/09/17 08:34:27;;;;;;;5.03;1.50;;;;;;;13.96;100.00;101442.38;5272537;28;20116;-72
2022/09/17 08:36:58;;;;;;;6.40;1.10;;;;;;;14.09;100.00;101456.09;5271093;28;20051;-72
2022/09/17 08:39:29;;;;;;;6.80;1.25;;;;;;;14.16;100.00;101451.94;5274867;28;20028;-72
2022/09/17 08:42:06;;;;;;;7.10;1.30;;;;;;;14.33;100.00;101447.78;5274792;28;20030;-72
2022/09/17 08:44:44;;;;;;;8.48;1.65;;;;;;;14.40;100.00;101448.06;5275911;28;20025;-72
2022/09/17 08:47:27;;;;;;;4.65;1.30;;;;;;;14.59;100.00;101463.91;5273521;28;20042;-72
2022/09/17 08:50:02;;;;;;;4.40;1.05;;;;;;;14.57;100.00;101461.38;5276527;28;20029;-72
2022/09/17 08:52:58;;;;;;;5.03;1.20;;;;;;;14.92;100.00;101472.28;5274924;28;20432;-72
2022/09/17 08:55:41;;;;;;;6.25;1.13;;;;;;;14.89;100.00;101459.38;5274501;28;20028;-72
2022/09/17 08:58:26;;;;;;;6.95;1.58;;;;;;;14.95;100.00;101466.72;5273698;28;20024;-72
2022/09/17 09:01:04;;;;;;;6.82;1.67;;;;;;;15.10;100.00;101473.19;5276195;28;20021;-72
2022/09/17 09:03:45;;;;;;;4.93;1.20;;;;;;;15.24;100.00;101472.75;5272939;28;20389;-71
2022/09/17 09:06:23;;;;;;;4.72;0.98;;;;;;;15.38;100.00;101474.09;5279723;28;20438;-72
2022/09/17 09:09:03;;;;;;;5.45;1.15;;;;;;;15.41;100.00;101470.28;5273303;28;20036;-72
2022/09/17 09:11:34;;;;;;;7.38;1.40;;;;;;;15.19;100.00;101476.78;5277045;28;20036;-72
2022/09/17 09:14:16;;;;;;;4.95;1.25;;;;;;;15.15;100.00;101488.59;5274008;28;20099;-71
2022/09/17 09:16:49;;;;;;;6.82;1.30;;;;;;;14.92;100.00;101475.75;5279676;28;20024;-72
2022/09/17 09:19:40;;;;;;;4.40;1.23;;;;;;;14.98;100.00;101479.63;5278973;28;20704;-72
2022/09/17 09:22:23;;;;;;;5.05;1.50;;;;;;;15.08;100.00;101478.63;5275938;28;20033;-71
2022/09/17 09:25:13;;;;;;;;;;;;;;;15.45;100.00;101485.69;5279127;28;20032;-72
2022/09/17 09:28:22;;;;;;;3.55;1.00;;;;;;;15.30;100.00;101474.81;5279625;28;19917;-72
2022/09/17 09:31:15;;;;;;;8.57;1.15;;;;;;;15.51;100.00;101474.56;5248303;28;20041;-72
2022/09/17 09:33:48;;;;;;;5.70;1.27;;;;;;;15.55;100.00;101472.47;5279498;28;20028;-72
2022/09/17 09:36:20;;;;;;;2.72;0.65;;;;;;;15.61;100.00;101466.59;5279975;28;20478;-72
2022/09/17 09:39:14;;;;;;;5.47;0.98;;;;;;;15.64;100.00;101474.19;5281654;28;20104;-72
2022/09/17 09:41:57;;;;;;;7.68;1.20;;;;;;;15.70;100.00;101483.41;5279253;28;20024;-72
2022/09/17 09:44:29;;;;;;;9.63;1.90;;;;;;;15.55;100.00;101469.81;5279376;28;20032;-72
2022/09/17 09:47:11;;;;;;;5.47;1.15;;;;;;;15.53;100.00;101474.41;5279870;28;20032;-72
2022/09/17 09:49:52;;;;;;;8.20;1.35;;;;;;;15.57;100.00;101479.25;5279056;28;20466;-72
2022/09/17 09:52:51;;;;;;;6.97;1.20;;;;;;;15.58;100.00;101482.72;5277778;28;20139;-72
2022/09/17 09:55:50;;;;;;;3.55;1.00;;;;;;;15.58;100.00;101488.00;5279145;28;20032;-72
2022/09/17 09:58:34;;;;;;;3.15;0.70;;;;;;;15.42;100.00;101479.88;5278485;28;20077;-72
2022/09/17 10:01:16;;;;;;;4.28;0.77;;;;;;;15.27;100.00;101487.47;5277345;28;20032;-72
2022/09/17 10:03:50;;;;;;;4.20;0.73;;;;;;;15.23;100.00;101489.56;5275346;28;20131;-72
2022/09/17 10:06:22;;;;;;;4.65;0.80;;;;;;;15.27;100.00;101475.09;5279187;28;20078;-72
2022/09/17 10:08:53;;;;;;;3.30;0.80;;;;;;;15.48;100.00;101481.94;5279193;28;20493;-72
2022/09/17 10:11:27;;;;;;;4.47;0.83;;;;;;;15.71;100.00;101488.50;5280162;28;20035;-72
2022/09/17 10:14:17;;;;;;;5.63;0.85;;;;;;;15.96;100.00;101480.88;5279013;28;20131;-72
2022/09/17 10:16:49;;;;;;;3.60;0.68;;;;;;;15.86;100.00;101490.66;5276961;28;20024;-72
2022/09/17 10:19:26;;;;;;;4.13;0.90;;;;;;;15.80;100.00;101463.03;5278469;28;20034;-72
2022/09/17 10:22:16;;;;;;;5.90;1.00;;;;;;;16.23;100.00;101475.50;5278486;28;20024;-72
2022/09/17 10:24:48;;;;;;;5.00;1.00;;;;;;;16.11;100.00;101468.78;5278166;28;20032;-72
2022/09/17 10:27:21;;;;;;;6.40;1.23;;;;;;;16.35;100.00;101464.69;5276520;28;20060;-72
2022/09/17 10:30:02;;;;;;;2.10;0.77;;;;;;;16.70;100.00;101467.28;5274056;28;20035;-72
2022/09/17 10:32:34;;;;;;;5.32;1.00;;;;;;;17.02;100.00;101458.75;5266006;28;20143;-72
2022/09/17 10:35:14;;;;;;;4.05;0.82;;;;;;;17.10;100.00;101462.44;5278535;28;20560;-72
2022/09/17 10:37:50;;;;;;;7.25;1.13;;;;;;;16.67;100.00;101462.31;5277445;28;20097;-72
2022/09/17 10:40:21;;;;;;;4.70;1.08;;;;;;;16.23;100.00;101479.97;5266392;28;20070;-72
2022/09/17 10:43:13;;;;;;;6.00;1.00;;;;;;;16.27;100.00;101478.69;5278903;28;20485;-72
2022/09/17 10:45:56;;;;;;;3.83;0.98;;;;;;;15.82;100.00;101474.28;5276460;28;20547;-72
2022/09/17 10:48:31;;;;;;;2.72;0.80;;;;;;;15.68;100.00;101478.28;5278012;28;20017;-72
2022/09/17 10:51:05;;;;;;;4.43;1.20;;;;;;;15.48;100.00;101481.94;5278130;28;20036;-72
2022/09/17 10:53:58;;;;;;;2.13;0.70;;;;;;;15.78;100.00;101478.19;5277966;28;20477;-72
2022/09/17 10:56:35;;;;;;;4.43;1.30;;;;;;;15.44;100.00;101483.22;5278145;28;20060;-72
2022/09/17 10:59:46;;;;;;;3.58;0.70;;;;;;;15.62;100.00;101476.19;5277094;28;20039;-72
2022/09/17 11:02:45;;;;;;;5.43;0.88;;;;;;;15.60;100.00;101475.47;5275939;28;20024;-72
2022/09/17 11:05:53;;;;;;;4.60;0.70;;;;;;;15.71;100.00;101471.84;5277670;28;20405;-72
2022/09/17 11:08:42;;;;;;;2.30;0.63;;;;;;;15.71;100.00;101470.03;5277631;28;20053;-72
2022/09/17 11:11:31;;;;;;;2.17;0.63;;;;;;;15.50;100.00;101466.78;5275685;28;20021;-72
2022/09/17 11:14:06;;;;;;;3.13;0.70;;;;;;;15.49;100.00;101462.47;5275457;28;20032;-72
2022/09/17 11:16:51;;;;;;;5.15;0.80;;;;;;;15.40;100.00;101464.19;5275853;28;20040;-72
2022/09/17 11:19:44;;;;;;;5.03;0.90;;;;;;;15.45;100.00;101461.09;5276071;28;20035;-72
2022/09/17 11:22:45;;;;;;;5.45;0.70;;;;;;;15.78;100.00;101454.41;5273343;28;20032;-72
2022/09/17 11:25:49;;;;;;;4.28;0.75;;;;;;;15.86;100.00;101457.13;5275135;28;20024;-72
2022/09/17 11:28:39;;;;;;;4.57;0.80;;;;;;;15.74;100.00;101453.88;5274599;28;20032;-72
2022/09/17 11:31:33;;;;;;;1.83;0.60;;;;;;;16.25;100.00;101443.63;5275187;28;20024;-72
2022/09/17 11:34:38;;;;;;;3.25;0.77;;;;;;;16.34;100.00;101441.88;5273730;28;20031;-72
2022/09/17 11:37:25;;;;;;;3.20;0.70;;;;;;;16.40;100.00;101452.69;5260208;28;20119;-72
2022/09/17 11:39:59;;;;;;;3.72;1.00;;;;;;;16.22;100.00;101441.31;5276552;28;20093;-72
2022/09/17 11:42:50;;;;;;;4.68;1.33;;;;;;;16.05;100.00;101448.25;5275906;28;20036;-72
2022/09/17 11:45:28;;;;;;;3.58;0.80;;;;;;;15.90;100.00;101447.09;5271614;28;20028;-71
2022/09/17 11:48:16;;;;;;;3.50;0.90;;;;;;;16.08;100.00;101453.22;5274820;28;20031;-72
2022/09/17 11:51:03;;;;;;;4.22;0.95;;;;;;;16.27;100.00;101450.41;5275491;28;20067;-71
2022/09/17 11:53:41;;;;;;;4.50;0.95;;;;;;;16.30;100.00;101444.84;5276218;28;20031;-71
2022/09/17 11:56:24;;;;;;;4.35;0.98;;;;;;;16.42;100.00;101449.88;5276688;28;20070;-72
2022/09/17 11:59:02;;;;;;;3.10;0.75;;;;;;;16.70;100.00;101446.09;5275489;28;20033;-72
2022/09/17 12:01:40;;;;;;;4.45;1.10;;;;;;;16.76;100.00;101447.34;5274593;28;20399;-72